Time;durP1;ratioP1;P1;durP2;ratioP2;P2;SDS_P1;SDS_P2;PMS_P1;PMS_P2;Temp;Humidity;BMP_temperature;BMP_pressure;BME280_temperature;BME280_humidity;BME280_pressure;Samples;Min_cycle;Max_cycle;Signal;HPM_P1;HPM_P2
2022/04/24 00:02:25;;;;;;;22.95;15.32;;;;;;;14.30;65.43;98988.91;4491086;31;33199;-77
2022/04/24 00:04:56;;;;;;;21.83;14.60;;;;;;;14.36;65.20;98985.13;4486829;31;34635;-78
2022/04/24 00:07:29;;;;;;;22.20;15.93;;;;;;;14.39;64.83;98982.69;4474404;31;33782;-80
2022/04/24 00:09:56;;;;;;;21.40;15.02;;;;;;;14.14;65.82;98974.00;4487888;31;33966;-77
2022/04/24 00:12:24;;;;;;;25.77;15.70;;;;;;;14.40;64.85;98980.78;4487527;31;33198;-77
2022/04/24 00:14:54;;;;;;;22.45;15.43;;;;;;;14.39;64.75;98979.94;4474449;31;31834;-75
2022/04/24 00:17:22;;;;;;;22.20;15.27;;;;;;;14.40;64.85;98983.53;4501622;31;35252;-79
2022/04/24 00:19:52;;;;;;;22.40;15.15;;;;;;;14.55;64.06;98975.53;4484990;31;33988;-77
2022/04/24 00:22:22;;;;;;;22.37;14.68;;;;;;;14.41;64.63;98974.16;4465803;31;31136;-77
2022/04/24 00:24:50;;;;;;;22.17;15.07;;;;;;;14.33;64.77;98960.78;4462385;32;32286;-77
2022/04/24 00:27:17;;;;;;;21.95;15.23;;;;;;;14.46;64.41;98954.97;4492904;31;34439;-77
2022/04/24 00:29:45;;;;;;;24.80;15.70;;;;;;;14.30;64.85;98947.50;4492377;31;33809;-77
2022/04/24 00:32:16;;;;;;;22.30;15.05;;;;;;;14.30;64.71;98933.72;4490564;31;33284;-77
2022/04/24 00:34:43;;;;;;;21.98;15.52;;;;;;;14.31;64.63;98935.34;4478299;31;32176;-77
2022/04/24 00:37:13;;;;;;;24.65;15.73;;;;;;;14.31;64.52;98941.72;4467075;31;34699;-77
2022/04/24 00:39:44;;;;;;;22.10;15.10;;;;;;;14.38;64.04;98933.25;4466205;31;33864;-77
2022/04/24 00:42:12;;;;;;;22.35;15.68;;;;;;;14.03;64.89;98939.88;4463076;31;33317;-78
2022/04/24 00:44:40;;;;;;;21.67;15.05;;;;;;;14.12;64.72;98941.16;4479119;31;32269;-77
2022/04/24 00:47:14;;;;;;;22.35;15.07;;;;;;;14.08;64.80;98948.25;4466737;31;34647;-77
2022/04/24 00:49:42;;;;;;;22.65;15.10;;;;;;;14.10;64.67;98948.00;4442719;32;33484;-78
2022/04/24 00:52:12;;;;;;;22.17;15.45;;;;;;;14.23;64.22;98944.09;4443089;32;32477;-77
2022/04/24 00:54:40;;;;;;;21.40;14.68;;;;;;;14.14;64.33;98936.22;4455808;32;33979;-77
2022/04/24 00:57:12;;;;;;;21.80;15.43;;;;;;;13.97;64.67;98932.59;4456007;32;34119;-77
2022/04/24 00:59:49;;;;;;;21.15;14.20;;;;;;;13.96;64.82;98946.66;4444167;32;33856;-77
2022/04/24 01:02:24;;;;;;;24.00;15.07;;;;;;;13.89;65.04;98954.25;4455399;32;31294;-77
2022/04/24 01:04:56;;;;;;;22.58;15.43;;;;;;;14.05;64.48;98943.25;4442689;32;32191;-78
2022/04/24 01:07:24;;;;;;;22.75;15.57;;;;;;;14.01;64.53;98939.31;4443139;32;34290;-78
2022/04/24 01:09:54;;;;;;;23.48;15.82;;;;;;;14.03;64.59;98945.41;4455074;32;34779;-78
2022/04/24 01:12:24;;;;;;;23.45;15.93;;;;;;;13.92;64.74;98954.59;4455113;32;33458;-77
2022/04/24 01:14:54;;;;;;;22.65;15.35;;;;;;;13.94;64.67;98941.37;4455497;32;33806;-77
2022/04/24 01:17:27;;;;;;;22.15;14.80;;;;;;;13.84;64.96;98939.28;4456898;32;34554;-77
2022/04/24 01:19:55;;;;;;;22.92;15.02;;;;;;;13.85;65.06;98940.94;4444420;32;33361;-78
2022/04/24 01:22:23;;;;;;;21.55;14.18;;;;;;;13.83;65.01;98934.00;4457453;32;33552;-78
2022/04/24 01:24:59;;;;;;;21.40;15.02;;;;;;;13.87;64.89;98928.84;4456462;32;35027;-77
2022/04/24 01:27:27;;;;;;;20.40;14.87;;;;;;;13.71;65.37;98936.81;4469405;32;35182;-76
2022/04/24 01:29:54;;;;;;;23.90;15.15;;;;;;;13.91;64.68;98933.59;4455476;32;34790;-77
2022/04/24 01:32:22;;;;;;;23.50;14.50;;;;;;;13.59;65.98;98930.56;4469446;32;33210;-78
2022/04/24 01:34:52;;;;;;;21.75;15.57;;;;;;;13.71;65.32;98925.78;4455618;32;33938;-77
2022/04/24 01:37:19;;;;;;;21.12;14.45;;;;;;;13.78;65.07;98923.72;4469791;32;34103;-77
2022/04/24 01:39:50;;;;;;;22.15;14.73;;;;;;;13.72;65.12;98915.59;4468795;32;33330;-77
2022/04/24 01:42:18;;;;;;;22.52;14.35;;;;;;;13.65;65.20;98912.19;4457137;32;31959;-78
2022/04/24 01:44:48;;;;;;;23.15;15.95;;;;;;;13.68;65.16;98909.75;4457162;32;33758;-78
2022/04/24 01:47:22;;;;;;;38.00;25.12;;;;;;;13.54;65.67;98907.56;4471457;32;34280;-78
2022/04/24 01:49:50;;;;;;;26.90;17.10;;;;;;;13.51;65.89;98912.50;4457322;32;33894;-78
2022/04/24 01:52:17;;;;;;;23.73;16.08;;;;;;;13.49;65.71;98911.06;4456901;32;34120;-77
2022/04/24 01:54:45;;;;;;;24.73;16.00;;;;;;;13.56;65.57;98910.91;4444350;32;33161;-79
2022/04/24 01:57:13;;;;;;;20.95;14.50;;;;;;;13.55;65.56;98925.78;4457171;32;34263;-78
2022/04/24 01:59:43;;;;;;;23.73;14.30;;;;;;;13.66;65.04;98916.59;4444117;32;33529;-76
2022/04/24 02:02:15;;;;;;;21.02;14.93;;;;;;;13.50;65.60;98919.09;4457753;32;34138;-77
2022/04/24 02:04:44;;;;;;;21.92;15.20;;;;;;;13.41;65.88;98914.22;4471457;32;34291;-77
2022/04/24 02:07:13;;;;;;;20.00;14.40;;;;;;;13.30;66.42;98921.44;4471003;32;34543;-79
2022/04/24 02:09:46;;;;;;;21.65;14.00;;;;;;;13.57;65.45;98918.94;4457107;32;34553;-77
2022/04/24 02:12:14;;;;;;;20.80;14.52;;;;;;;13.21;66.43;98909.13;4444447;32;32794;-77
2022/04/24 02:14:44;;;;;;;23.73;15.70;;;;;;;13.32;66.09;98915.69;4456989;32;33982;-78
2022/04/24 02:17:11;;;;;;;19.77;14.30;;;;;;;13.44;65.36;98920.06;4470981;32;35460;-77
2022/04/24 02:19:45;;;;;;;21.30;15.18;;;;;;;13.03;67.04;98909.28;4457333;32;33847;-77
2022/04/24 02:22:17;;;;;;;21.25;14.05;;;;;;;13.23;66.71;98920.75;4457195;32;33349;-77
2022/04/24 02:24:45;;;;;;;22.00;14.63;;;;;;;13.32;66.27;98915.69;4444135;32;33119;-77
2022/04/24 02:27:13;;;;;;;22.65;14.73;;;;;;;13.23;66.36;98901.47;4456710;32;34493;-77
2022/04/24 02:29:40;;;;;;;21.05;14.95;;;;;;;13.08;66.67;98903.87;4456445;32;33788;-77
2022/04/24 02:32:11;;;;;;;22.83;14.95;;;;;;;13.19;66.60;98883.75;4469680;32;31937;-78
2022/04/24 02:34:38;;;;;;;21.23;15.52;;;;;;;13.21;66.48;98911.06;4456991;32;34119;-77
2022/04/24 02:37:11;;;;;;;21.23;14.57;;;;;;;13.28;66.27;98909.84;4457473;32;34611;-77
2022/04/24 02:39:41;;;;;;;21.70;14.70;;;;;;;13.10;66.65;98891.53;4470753;32;34064;-77
2022/04/24 02:42:30;;;;;;;19.87;14.07;;;;;;;12.93;67.68;98922.88;4458487;32;33893;-78
2022/04/24 02:45:00;;;;;;;23.25;15.63;;;;;;;13.12;66.62;98902.31;4456995;32;33886;-79
2022/04/24 02:47:29;;;;;;;22.45;15.70;;;;;;;13.21;66.53;98914.66;4470750;32;34315;-77
2022/04/24 02:49:57;;;;;;;22.27;14.65;;;;;;;13.25;66.17;98913.09;4456813;32;34619;-77
2022/04/24 02:52:28;;;;;;;21.10;14.57;;;;;;;13.24;66.08;98903.13;4456720;32;33244;-78
2022/04/24 02:54:55;;;;;;;24.63;15.10;;;;;;;13.14;66.59;98906.50;4456710;32;33931;-79
2022/04/24 02:57:33;;;;;;;21.83;14.65;;;;;;;13.22;66.13;98902.56;4469558;32;32961;-78
2022/04/24 03:00:00;;;;;;;23.85;15.00;;;;;;;12.97;67.10;98902.03;4456889;32;34779;-78
2022/04/24 03:02:28;;;;;;;21.30;14.18;;;;;;;13.16;66.24;98906.28;4456565;32;33335;-79
2022/04/24 03:04:56;;;;;;;21.45;14.75;;;;;;;13.18;65.96;98893.09;4443673;32;32267;-77
2022/04/24 03:07:25;;;;;;;24.83;16.23;;;;;;;13.04;66.41;98894.44;4443941;32;34423;-77
2022/04/24 03:09:53;;;;;;;26.48;17.20;;;;;;;13.00;66.85;98896.03;4470405;32;34587;-78
2022/04/24 03:12:21;;;;;;;21.20;14.52;;;;;;;13.29;65.44;98888.63;4469425;32;32917;-78
2022/04/24 03:14:51;;;;;;;21.80;14.40;;;;;;;13.10;66.62;98883.28;4456954;32;33704;-78
2022/04/24 03:17:18;;;;;;;22.62;15.27;;;;;;;13.24;65.67;98878.34;4470706;32;35122;-78
2022/04/24 03:19:51;;;;;;;21.55;14.80;;;;;;;12.91;66.71;98876.28;4470558;32;34031;-77
2022/04/24 03:22:23;;;;;;;23.80;16.48;;;;;;;13.09;66.39;98878.00;4456993;32;34014;-77
2022/04/24 03:24:51;;;;;;;23.08;15.98;;;;;;;13.27;65.70;98879.78;4456985;32;33680;-78
2022/04/24 03:27:21;;;;;;;23.55;15.57;;;;;;;13.15;65.70;98880.63;4470560;32;35076;-78
2022/04/24 03:29:48;;;;;;;24.12;15.88;;;;;;;13.05;66.57;98866.63;4456315;32;34526;-78
2022/04/24 03:32:16;;;;;;;23.40;15.70;;;;;;;13.06;66.21;98868.31;4443506;32;31835;-78
2022/04/24 03:34:50;;;;;;;25.15;15.68;;;;;;;13.00;66.67;98854.72;4431919;32;33361;-77
2022/04/24 03:37:18;;;;;;;23.55;16.12;;;;;;;12.90;66.94;98860.00;4443509;32;34868;-78
2022/04/24 03:39:46;;;;;;;26.55;18.17;;;;;;;13.07;66.36;98864.47;4441868;32;32346;-78
2022/04/24 03:42:19;;;;;;;25.05;16.95;;;;;;;13.12;66.22;98861.00;4456861;32;34251;-78
2022/04/24 03:44:47;;;;;;;23.50;16.42;;;;;;;13.15;66.20;98849.47;4430743;32;32382;-79
2022/04/24 03:47:15;;;;;;;27.17;16.30;;;;;;;13.04;66.64;98848.44;4470316;32;34449;-79
2022/04/24 03:49:45;;;;;;;24.90;16.45;;;;;;;13.07;66.86;98852.63;4456394;32;34567;-78
2022/04/24 03:52:16;;;;;;;26.15;17.35;;;;;;;12.84;67.49;98850.81;4469230;32;32315;-79
2022/04/24 03:54:44;;;;;;;26.23;16.92;;;;;;;12.93;67.55;98859.53;4456251;32;33767;-78
2022/04/24 03:57:13;;;;;;;24.25;16.12;;;;;;;13.19;66.42;98858.97;4444062;32;34085;-78
2022/04/24 03:59:47;;;;;;;26.08;16.80;;;;;;;13.09;66.89;98861.47;4456143;32;34485;-77
2022/04/24 04:02:14;;;;;;;23.95;16.10;;;;;;;13.18;66.40;98849.03;4443449;32;33596;-77
2022/04/24 04:04:45;;;;;;;27.85;17.27;;;;;;;13.21;66.23;98843.00;4470204;32;33843;-77
2022/04/24 04:07:15;;;;;;;25.33;17.02;;;;;;;13.32;65.54;98844.88;4456713;32;34366;-77
2022/04/24 04:09:46;;;;;;;25.88;17.08;;;;;;;13.37;65.72;98852.41;4456042;32;33660;-77
2022/04/24 04:12:17;;;;;;;24.90;16.60;;;;;;;13.29;65.81;98853.62;4455870;32;33220;-77
2022/04/24 04:14:45;;;;;;;23.98;15.60;;;;;;;13.39;65.39;98855.75;4443713;32;32616;-78
2022/04/24 04:17:12;;;;;;;26.12;17.15;;;;;;;13.33;65.55;98863.09;4456476;32;34454;-78
2022/04/24 04:19:40;;;;;;;25.90;16.95;;;;;;;13.18;66.38;98854.53;4470069;32;34735;-77
2022/04/24 04:22:08;;;;;;;25.37;16.52;;;;;;;13.42;65.36;98855.25;4470457;32;34332;-78
2022/04/24 04:24:38;;;;;;;27.55;16.90;;;;;;;13.36;65.75;98861.75;4470095;32;34503;-78
2022/04/24 04:27:06;;;;;;;25.45;16.87;;;;;;;13.31;65.93;98848.72;4455893;32;32860;-78
2022/04/24 04:29:42;;;;;;;27.37;18.33;;;;;;;13.34;65.90;98859.25;4456303;32;33812;-78
2022/04/24 04:32:12;;;;;;;24.33;16.48;;;;;;;13.50;65.12;98852.94;4456175;32;32749;-78
2022/04/24 04:34:42;;;;;;;33.97;20.98;;;;;;;13.61;64.78;98853.13;4455835;32;33589;-78
2022/04/24 04:37:09;;;;;;;28.95;19.33;;;;;;;13.44;65.34;98853.09;4456429;32;34393;-78
2022/04/24 04:39:40;;;;;;;32.35;21.12;;;;;;;13.36;65.47;98857.09;4443761;32;34617;-77
2022/04/24 04:42:08;;;;;;;34.33;21.33;;;;;;;13.28;65.98;98868.50;4455704;32;31829;-78
2022/04/24 04:44:35;;;;;;;25.10;16.30;;;;;;;13.39;65.53;98870.38;4443185;32;34592;-78
2022/04/24 04:47:04;;;;;;;26.30;16.77;;;;;;;13.37;65.51;98863.44;4469733;32;34466;-82
2022/04/24 04:49:32;;;;;;;28.52;17.42;;;;;;;13.50;65.30;98863.13;4443337;32;33969;-78
2022/04/24 04:51:59;;;;;;;27.87;17.20;;;;;;;13.55;65.16;98860.47;4468653;32;34187;-77
2022/04/24 04:54:29;;;;;;;24.80;17.05;;;;;;;13.49;65.35;98861.44;4455899;32;33778;-77
2022/04/24 04:56:58;;;;;;;26.55;16.45;;;;;;;13.44;65.62;98856.69;4455928;32;34367;-78
2022/04/24 04:59:26;;;;;;;25.67;16.73;;;;;;;13.66;65.01;98861.44;4469707;32;33927;-77
2022/04/24 05:01:53;;;;;;;24.77;17.02;;;;;;;13.63;65.41;98850.94;4466220;32;108039;-78
2022/04/24 05:04:21;;;;;;;25.15;16.48;;;;;;;13.61;65.46;98853.97;4442792;32;33190;-77
2022/04/24 05:06:51;;;;;;;25.12;17.27;;;;;;;13.65;65.41;98855.09;4455655;32;34463;-77
2022/04/24 05:09:24;;;;;;;23.60;15.93;;;;;;;13.76;65.40;98856.09;4469581;32;33981;-78
2022/04/24 05:11:56;;;;;;;27.05;17.30;;;;;;;13.79;65.35;98853.69;4468417;32;32719;-77
2022/04/24 05:14:29;;;;;;;29.73;18.60;;;;;;;13.83;65.00;98843.81;4469368;32;33761;-77
2022/04/24 05:16:59;;;;;;;29.58;17.95;;;;;;;14.00;64.48;98834.72;4455810;32;34417;-77
2022/04/24 05:19:29;;;;;;;16.73;10.00;;;;;;;14.05;64.17;98837.56;4469500;32;34010;-76
2022/04/24 05:21:57;;;;;;;28.35;18.70;;;;;;;14.09;64.43;98836.81;4454912;32;31743;-77
2022/04/24 05:24:24;;;;;;;28.23;18.75;;;;;;;13.86;65.17;98839.75;4442667;32;34623;-76
2022/04/24 05:26:55;;;;;;;29.95;20.25;;;;;;;13.84;65.19;98831.72;4469592;32;34458;-76
2022/04/24 05:29:23;;;;;;;29.27;19.08;;;;;;;13.76;65.43;98832.12;4455202;32;33534;-77
2022/04/24 05:31:50;;;;;;;27.65;19.27;;;;;;;14.17;64.12;98836.38;4469368;32;33060;-76
2022/04/24 05:34:18;;;;;;;26.98;18.27;;;;;;;14.04;64.68;98822.09;4469262;32;34423;-76
2022/04/24 05:36:50;;;;;;;30.12;20.40;;;;;;;14.05;65.25;98821.84;4455468;32;35370;-76
2022/04/24 05:39:18;;;;;;;32.55;20.80;;;;;;;14.17;65.58;98825.34;4454994;32;34708;-77
2022/04/24 05:41:48;;;;;;;30.92;19.75;;;;;;;14.32;64.64;98826.63;4469347;32;33384;-77
2022/04/24 05:44:15;;;;;;;37.80;25.73;;;;;;;14.05;65.36;98838.41;4469136;32;33754;-76
2022/04/24 05:46:43;;;;;;;28.80;20.23;;;;;;;14.35;64.96;98853.72;4454944;32;33852;-77
2022/04/24 05:49:13;;;;;;;36.72;23.83;;;;;;;14.39;64.19;98863.16;4454916;32;34724;-77
2022/04/24 05:51:43;;;;;;;35.20;22.50;;;;;;;14.52;64.21;98854.56;4469073;32;33264;-78
2022/04/24 05:54:11;;;;;;;33.22;20.08;;;;;;;14.39;64.64;98854.88;4442076;32;32056;-78
2022/04/24 05:56:42;;;;;;;29.40;20.27;;;;;;;14.55;64.14;98856.81;4454938;32;34487;-78
2022/04/24 05:59:12;;;;;;;27.77;19.30;;;;;;;14.58;63.64;98855.47;4454839;32;33879;-79
2022/04/24 06:01:40;;;;;;;30.42;19.52;;;;;;;14.54;63.44;98846.84;4454892;32;33123;-79
2022/04/24 06:04:11;;;;;;;29.25;18.85;;;;;;;14.57;63.54;98851.03;4456152;32;34482;-79
2022/04/24 06:06:39;;;;;;;32.80;20.65;;;;;;;14.80;62.94;98845.25;4444058;32;33995;-79
2022/04/24 06:09:09;;;;;;;31.40;21.08;;;;;;;14.68;63.25;98845.38;4470957;32;34134;-78
2022/04/24 06:11:41;;;;;;;28.52;19.48;;;;;;;14.82;63.27;98849.44;4444189;32;31501;-79
2022/04/24 06:14:11;;;;;;;30.12;19.98;;;;;;;14.70;63.25;98848.72;4457784;32;33791;-79
2022/04/24 06:16:41;;;;;;;29.08;19.40;;;;;;;14.99;62.78;98840.22;4470594;32;34412;-78
2022/04/24 06:19:08;;;;;;;32.58;19.52;;;;;;;15.12;62.17;98842.59;4444283;32;32767;-78
2022/04/24 06:21:36;;;;;;;31.52;21.42;;;;;;;14.91;62.49;98835.19;4470973;32;34130;-79
2022/04/24 06:24:10;;;;;;;28.70;19.80;;;;;;;15.08;61.81;98835.91;4457804;32;34463;-79
2022/04/24 06:26:38;;;;;;;29.90;20.45;;;;;;;15.07;61.99;98837.00;4444157;32;35146;-79
2022/04/24 06:29:08;;;;;;;31.83;20.85;;;;;;;15.08;62.08;98842.25;4456777;32;33823;-78
2022/04/24 06:31:36;;;;;;;33.38;21.60;;;;;;;15.22;61.45;98837.16;4469802;32;33423;-79
2022/04/24 06:34:04;;;;;;;30.45;20.65;;;;;;;15.40;61.06;98836.81;4456936;32;34639;-79
2022/04/24 06:36:31;;;;;;;32.15;20.88;;;;;;;15.42;61.15;98839.31;4456474;32;34342;-78
2022/04/24 06:39:04;;;;;;;33.53;22.05;;;;;;;15.61;60.62;98839.78;4444015;32;34884;-78
2022/04/24 06:41:31;;;;;;;33.60;22.65;;;;;;;15.61;60.81;98834.25;4457170;32;34083;-78
2022/04/24 06:43:59;;;;;;;31.98;21.65;;;;;;;15.70;60.28;98836.28;4457091;32;34551;-78
2022/04/24 06:46:27;;;;;;;30.70;20.48;;;;;;;15.89;60.15;98817.34;4431144;32;33948;-79
2022/04/24 06:48:54;;;;;;;28.23;18.77;;;;;;;15.96;59.84;98828.19;4470489;32;33887;-78
2022/04/24 06:51:24;;;;;;;27.77;19.20;;;;;;;16.08;59.47;98812.25;4456689;32;33553;-79
2022/04/24 06:53:52;;;;;;;27.60;17.77;;;;;;;16.10;59.51;98824.72;4456406;32;33584;-79
2022/04/24 06:56:19;;;;;;;27.70;18.62;;;;;;;16.29;59.57;98821.50;4456727;32;34423;-79
2022/04/24 06:58:51;;;;;;;28.58;19.00;;;;;;;16.36;58.95;98806.31;4470893;32;34841;-78
2022/04/24 07:01:23;;;;;;;26.67;18.40;;;;;;;16.61;58.26;98807.56;4457043;32;34223;-80
2022/04/24 07:03:51;;;;;;;28.42;18.55;;;;;;;16.65;58.20;98806.78;4456449;32;34612;-78
2022/04/24 07:06:25;;;;;;;28.75;19.05;;;;;;;17.00;57.45;98814.38;4470695;32;34467;-79
2022/04/24 07:08:53;;;;;;;25.73;17.48;;;;;;;17.26;57.01;98797.81;4443985;32;33842;-79
2022/04/24 07:11:24;;;;;;;27.20;18.23;;;;;;;17.13;57.21;98808.31;4443463;32;34285;-79
2022/04/24 07:13:54;;;;;;;27.08;18.10;;;;;;;17.23;56.86;98807.50;4450076;32;33868;-78
2022/04/24 07:16:22;;;;;;;26.12;17.87;;;;;;;17.44;56.38;98792.56;4483521;32;34186;-78
2022/04/24 07:18:49;;;;;;;25.80;18.10;;;;;;;17.54;55.48;98804.81;4469118;32;34623;-79
2022/04/24 07:21:17;;;;;;;25.85;17.70;;;;;;;17.73;55.42;98794.81;4470482;32;32192;-78
2022/04/24 07:23:45;;;;;;;24.35;17.58;;;;;;;17.90;55.12;98798.16;4484887;32;33929;-78
2022/04/24 07:26:12;;;;;;;26.42;16.95;;;;;;;18.08;54.51;98796.75;4456823;32;34407;-79
2022/04/24 07:28:40;;;;;;;23.98;16.60;;;;;;;18.02;54.81;98793.16;4458971;32;33389;-80
2022/04/24 07:31:13;;;;;;;26.87;17.00;;;;;;;17.94;54.39;98788.16;4459066;32;32794;-79
2022/04/24 07:33:41;;;;;;;26.40;17.10;;;;;;;18.01;54.53;98796.22;4472554;32;33719;-79
2022/04/24 07:36:09;;;;;;;23.02;16.33;;;;;;;18.15;54.51;98788.13;4471993;32;32882;-80
2022/04/24 07:38:39;;;;;;;26.75;17.87;;;;;;;18.32;53.88;98785.84;4485568;32;33761;-78
2022/04/24 07:41:06;;;;;;;24.40;15.98;;;;;;;18.26;54.21;98798.09;4457928;32;33018;-78
2022/04/24 07:43:34;;;;;;;24.45;16.52;;;;;;;18.24;53.41;98772.53;4470329;32;34093;-78
2022/04/24 07:46:02;;;;;;;25.90;17.27;;;;;;;18.46;53.54;98789.72;4470234;32;34276;-78
2022/04/24 07:48:29;;;;;;;26.55;17.35;;;;;;;18.69;53.58;98802.19;4470282;32;33614;-78
2022/04/24 07:50:57;;;;;;;25.83;16.30;;;;;;;18.74;53.41;98794.66;4470218;32;33220;-78
2022/04/24 07:53:25;;;;;;;24.23;15.95;;;;;;;18.61;53.13;98802.75;4470423;32;33839;-78
2022/04/24 07:55:52;;;;;;;25.12;15.98;;;;;;;18.76;52.79;98794.38;4471458;32;33164;-79
2022/04/24 07:58:23;;;;;;;26.15;16.25;;;;;;;18.86;52.69;98796.25;4485852;32;34030;-78
2022/04/24 08:00:50;;;;;;;25.88;16.98;;;;;;;18.82;52.80;98797.97;4485652;32;33946;-79
2022/04/24 08:03:21;;;;;;;24.45;15.50;;;;;;;19.05;52.32;98789.75;4471481;32;32137;-80
2022/04/24 08:05:50;;;;;;;26.60;16.00;;;;;;;18.84;52.48;98777.09;4446493;32;33587;-79
2022/04/24 08:08:20;;;;;;;23.58;15.52;;;;;;;18.97;52.40;98761.72;4472165;32;34493;-79
2022/04/24 08:10:53;;;;;;;23.80;16.02;;;;;;;19.08;52.71;98769.72;4471581;32;31951;-79
2022/04/24 08:13:21;;;;;;;24.12;16.35;;;;;;;19.39;52.64;98763.97;4471892;32;33560;-75
2022/04/24 08:15:50;;;;;;;21.58;15.25;;;;;;;19.53;52.05;98776.13;4471774;32;35155;-74
2022/04/24 08:18:18;;;;;;;21.45;14.75;;;;;;;19.42;51.23;98755.88;4471663;32;32534;-76
2022/04/24 08:20:47;;;;;;;20.58;13.43;;;;;;;19.56;51.16;98749.66;4471780;32;33530;-76
2022/04/24 08:23:18;;;;;;;23.20;15.27;;;;;;;19.72;50.42;98759.56;4458699;32;32257;-75
2022/04/24 08:25:52;;;;;;;20.88;13.27;;;;;;;20.10;50.13;98749.47;4471282;32;34415;-79
2022/04/24 08:28:21;;;;;;;20.83;14.87;;;;;;;20.43;50.09;98744.94;4471556;32;33849;-78
2022/04/24 08:30:49;;;;;;;20.33;14.07;;;;;;;20.51;49.38;98751.81;4458820;32;31772;-79
2022/04/24 08:33:17;;;;;;;20.15;13.50;;;;;;;20.61;48.76;98738.59;4458538;32;32358;-79
2022/04/24 08:35:45;;;;;;;20.08;14.80;;;;;;;20.70;48.24;98744.31;4471698;32;34483;-77
2022/04/24 08:38:13;;;;;;;21.65;13.48;;;;;;;20.91;48.93;98744.88;4471777;32;33841;-81
2022/04/24 08:40:41;;;;;;;21.95;15.05;;;;;;;20.88;47.76;98735.13;4471577;32;34070;-79
2022/04/24 08:43:11;;;;;;;23.65;14.90;;;;;;;21.00;48.11;98721.59;4471484;32;34609;-81
2022/04/24 08:45:42;;;;;;;20.98;13.93;;;;;;;21.36;47.38;98716.34;4471479;32;34324;-81
2022/04/24 08:48:10;;;;;;;19.70;13.82;;;;;;;21.48;46.91;98717.81;4471204;32;32486;-81
2022/04/24 08:50:38;;;;;;;25.62;14.32;;;;;;;21.62;46.87;98722.31;4471223;32;33195;-79
2022/04/24 08:53:08;;;;;;;18.15;12.93;;;;;;;21.72;45.97;98724.09;4458534;32;33682;-80
2022/04/24 08:55:35;;;;;;;18.33;12.43;;;;;;;21.67;45.82;98704.63;4458264;32;32991;-79
2022/04/24 08:58:03;;;;;;;14.98;10.35;;;;;;;21.77;45.51;98707.25;4485438;32;34103;-80
2022/04/24 09:00:33;;;;;;;16.25;10.93;;;;;;;21.85;45.45;98698.19;4458539;32;33558;-79
2022/04/24 09:03:01;;;;;;;15.45;9.73;;;;;;;22.12;43.22;98718.94;4458308;32;33940;-80
2022/04/24 09:05:30;;;;;;;11.75;7.40;;;;;;;22.08;44.67;98710.38;4458335;32;32916;-79
2022/04/24 09:08:12;;;;;;;11.43;5.55;;;;;;;22.27;43.03;98699.91;4471561;32;34278;-78
2022/04/24 09:11:01;;;;;;;10.43;5.87;;;;;;;22.33;41.44;98695.03;4470893;32;32808;-79
2022/04/24 09:13:32;;;;;;;10.02;5.00;;;;;;;22.29;41.70;98700.41;4471177;32;33697;-79
2022/04/24 09:16:02;;;;;;;10.27;4.95;;;;;;;22.24;41.68;98691.31;4458147;32;34021;-79
2022/04/24 09:18:38;;;;;;;8.48;3.42;;;;;;;22.41;41.36;98694.31;4458789;32;33800;-78
2022/04/24 09:21:05;;;;;;;8.10;3.15;;;;;;;22.02;39.99;98698.44;4471178;32;34129;-79
2022/04/24 09:23:35;;;;;;;6.57;2.80;;;;;;;21.84;41.26;98695.69;4458039;32;33106;-79
2022/04/24 09:26:03;;;;;;;7.03;2.62;;;;;;;21.68;40.10;98690.37;4458007;32;33707;-79
2022/04/24 09:28:38;;;;;;;7.07;2.83;;;;;;;21.76;40.08;98691.63;4470902;32;32862;-79
2022/04/24 09:31:07;;;;;;;6.85;2.40;;;;;;;21.82;40.35;98686.78;4470976;32;33246;-78
2022/04/24 09:33:39;;;;;;;5.37;2.42;;;;;;;21.88;40.15;98688.34;4471029;32;34584;-78
2022/04/24 09:36:11;;;;;;;7.40;2.45;;;;;;;21.86;40.36;98685.03;4485033;32;35213;-79
2022/04/24 09:38:44;;;;;;;7.75;2.40;;;;;;;22.06;39.85;98693.06;4486658;32;33944;-79
2022/04/24 09:41:21;;;;;;;5.50;2.15;;;;;;;22.10;38.33;98682.91;4473940;32;33252;-79
2022/04/24 09:43:49;;;;;;;6.45;2.12;;;;;;;22.23;39.49;98686.84;4472889;32;33627;-78
2022/04/24 09:46:25;;;;;;;5.03;1.40;;;;;;;22.30;38.80;98688.09;4473211;32;35295;-78
2022/04/24 09:48:58;;;;;;;6.30;1.30;;;;;;;21.78;37.33;98702.50;4487022;32;35151;-78
2022/04/24 09:51:26;;;;;;;2.58;1.00;;;;;;;21.42;37.63;98686.38;4460111;32;33492;-78
2022/04/24 09:53:58;;;;;;;3.40;1.45;;;;;;;21.52;37.98;98702.94;4472836;32;34869;-77
2022/04/24 09:56:27;;;;;;;4.70;1.42;;;;;;;21.49;37.06;98684.00;4472741;32;34179;-77
2022/04/24 09:58:58;;;;;;;6.53;1.27;;;;;;;21.59;37.21;98685.78;4486944;32;34656;-78
2022/04/24 10:01:27;;;;;;;5.60;1.15;;;;;;;21.43;37.42;98703.97;4467282;32;33967;-78
2022/04/24 10:03:56;;;;;;;4.20;0.90;;;;;;;21.12;37.70;98703.56;4486662;32;33673;-78
2022/04/24 10:06:24;;;;;;;4.70;1.05;;;;;;;20.99;37.48;98719.09;4459838;32;33967;-78
2022/04/24 10:08:52;;;;;;;5.35;1.20;;;;;;;20.85;37.94;98707.00;4472701;32;33917;-78
2022/04/24 10:11:20;;;;;;;4.72;1.20;;;;;;;21.11;37.36;98719.47;4459219;32;31648;-78
2022/04/24 10:13:58;;;;;;;4.28;1.27;;;;;;;20.76;38.27;98711.63;4473360;32;33632;-78
2022/04/24 10:16:28;;;;;;;4.25;0.93;;;;;;;20.45;38.85;98714.81;4472665;32;34439;-77
2022/04/24 10:19:02;;;;;;;2.97;0.80;;;;;;;20.51;38.87;98726.72;4485833;32;34400;-76
2022/04/24 10:22:04;;;;;;;5.12;1.30;;;;;;;20.23;39.47;98734.81;4486200;32;33250;-78
2022/04/24 10:24:40;;;;;;;3.58;1.00;;;;;;;20.34;40.51;98728.00;4478039;32;33366;-78
2022/04/24 10:27:11;;;;;;;5.45;1.10;;;;;;;20.47;40.20;98726.47;4450364;32;33026;-79
2022/04/24 10:30:35;;;;;;;4.80;1.80;;;;;;;20.21;41.76;98741.78;4455660;32;34275;-76
2022/04/24 10:34:04;;;;;;;2.42;1.20;;;;;;;20.00;42.47;98732.84;4421814;32;33091;-78
2022/04/24 10:45:20;;;;;;;2.12;0.90;;;;;;;19.64;41.70;98723.97;4410051;32;34325;-78
2022/04/24 11:32:59;;;;;;;5.40;1.45;;;;;;;17.86;50.26;98749.03;4498283;26;210531;-81
2022/04/24 11:35:29;;;;;;;5.68;2.03;;;;;;;17.86;50.26;98749.03;4462273;31;33030;-82
2022/04/24 11:38:08;;;;;;;10.57;4.05;;;;;;;17.69;49.93;98732.66;4455629;32;33742;-81
2022/04/24 11:40:48;;;;;;;5.45;1.58;;;;;;;18.17;48.92;98736.75;4471010;32;34482;-80
2022/04/24 11:43:21;;;;;;;5.75;1.67;;;;;;;18.33;48.73;98745.84;4470156;32;33621;-80
2022/04/24 11:51:34;;;;;;;5.15;1.55;;;;;;;18.82;48.76;98743.19;4485757;31;34361;-80
2022/04/24 11:54:10;;;;;;;3.92;1.87;;;;;;;18.99;48.76;98729.72;4470965;32;32477;-81
2022/04/24 11:56:39;;;;;;;7.82;1.95;;;;;;;19.15;48.43;98722.13;4457751;32;31894;-81
2022/04/24 11:59:25;;;;;;;6.15;1.70;;;;;;;19.23;47.91;98701.22;4483341;32;34543;-80
2022/04/24 12:01:58;;;;;;;7.50;1.60;;;;;;;19.64;48.16;98712.84;4470462;32;34007;-81
2022/04/24 12:04:32;;;;;;;6.60;2.08;;;;;;;19.94;47.53;98720.09;4470335;32;32302;-81
2022/04/24 12:07:09;;;;;;;5.35;1.70;;;;;;;19.90;46.37;98722.63;4470459;32;33937;-81
2022/04/24 12:09:40;;;;;;;4.62;1.83;;;;;;;20.10;45.84;98715.19;4483670;31;34212;-81
2022/04/24 12:12:16;;;;;;;2.60;1.30;;;;;;;20.27;45.35;98698.81;4467007;32;34041;-81
2022/04/24 12:14:53;;;;;;;4.03;1.50;;;;;;;20.46;45.62;98682.19;4483330;32;33424;-82
2022/04/24 12:17:23;;;;;;;5.43;1.58;;;;;;;20.42;45.83;98693.09;4483132;32;33317;-81
2022/04/24 12:19:54;;;;;;;5.03;1.83;;;;;;;20.81;45.96;98686.44;4470371;32;32958;-82
2022/04/24 12:22:34;;;;;;;7.30;2.50;;;;;;;21.34;45.60;98673.94;4457536;32;32799;-81
2022/04/24 12:25:15;;;;;;;7.05;2.28;;;;;;;21.61;43.54;98678.75;4497622;31;34591;-82
2022/04/24 12:27:54;;;;;;;4.87;1.73;;;;;;;21.63;43.27;98678.47;4483929;32;33450;-81
2022/04/24 12:30:31;;;;;;;5.60;2.28;;;;;;;21.83;43.83;98685.66;4482348;32;33658;-81
2022/04/24 12:33:09;;;;;;;5.62;2.10;;;;;;;22.10;43.22;98690.50;4481606;32;34713;-82
2022/04/24 12:35:36;;;;;;;5.18;1.70;;;;;;;21.99;41.46;98687.03;4483663;32;34382;-81